Flight Track Log - Related Links

Times and Time Zones

All times are in EDT time to prevent confusion due to time zone crossing. See the EJA951 flight status page for this flight to view local times or setup timezone preferences in your user account.

Time Position Orientation Groundspeed Altitude Reporting Facility
EDT Latitude Longitude Course Direction KTS MPH feet Rate Location/Type
Sat 08:16:53 AM 41.1000 -73.7500 270° West 170 196 2,900  Level New York TRACON
Sat 08:17:53 AM 41.1167 -73.8167 288° West 174 200 4,400 1,316 Climbing New York TRACON
Sat 08:18:47 AM 41.1167 -73.8833 270° West 219 252 5,400 2,053 Climbing New York TRACON
Sat 08:19:47 AM 41.0833 -73.9500 236° Southwest 232 267 8,300 2,600 Climbing New York TRACON
Sat 08:20:47 AM 41.0333 -74.0167 225° Southwest 255 293 10,600 1,750 Climbing New York TRACON
Sat 08:21:47 AM 40.9833 -74.1167 237° Southwest 291 335 11,800 1,350 Climbing New York TRACON
Sat 08:22:00 AM 40.9667 -74.6487 270° West  Level FlightAware Approximate
Sat 08:22:47 AM 40.9333 -74.2000 232° Southwest 314 361 13,300  Level New York TRACON
Sat 08:23:47 AM 40.9333 -74.3167 270° West 319 367 14,500 911 Climbing New York TRACON
Sat 08:24:39 AM 40.9350 -74.4050 271° West 317 365 15,000 425 Climbing New York Center
Sat 08:25:40 AM 40.9356 -74.5203 270° West 327 376 15,300 700 Climbing New York Center
Sat 08:26:39 AM 40.9317 -74.6328 267° West 321 369 16,400 850 Climbing New York Center
Sat 08:27:40 AM 40.9278 -74.7506 268° West 314 361 17,000 300 Climbing New York Center
Sat 08:28:39 AM 40.9239 -74.8658 267° West 314 361 17,000 942 Level New York Center
Sat 08:29:41 AM 40.9067 -74.9992 260° West 326 375 18,900 1,785 Climbing New York Center
Sat 08:30:40 AM 40.8864 -75.1022 255° West 331 381 20,600 1,900 Climbing New York Center
Sat 08:31:41 AM 40.8650 -75.2272 257° West 336 387 22,700 2,218 Climbing New York Center
Sat 08:32:39 AM 40.8725 -75.3594 274° West 336 387 25,000 2,168 Climbing New York Center
Sat 08:33:40 AM 40.8842 -75.4864 277° West 336 387 27,000 2,150 Climbing New York Center
Sat 08:34:39 AM 40.8958 -75.6108 277° West 349 402 29,300 2,380 Climbing New York Center
Sat 08:35:41 AM 40.9075 -75.7325 277° West 349 402 31,800 1,869 Climbing New York Center
Sat 08:36:41 AM 40.9189 -75.8567 277° West 349 402 33,100 1,250 Climbing New York Center
Sat 08:37:41 AM 40.9317 -75.9922 277° West 356 410 34,300 1,220 Climbing New York Center
Sat 08:38:39 AM 40.9422 -76.1278 276° West 364 419 35,500 1,100 Climbing New York Center
Sat 08:39:41 AM 40.9567 -76.2692 278° West 380 437 36,500 942 Climbing New York Center
Sat 08:40:40 AM 40.9686 -76.4103 276° West 386 444 37,400 750 Climbing New York Center
Sat 08:41:41 AM 40.9822 -76.5597 277° West 397 457 38,000 295 Climbing New York Center
Sat 08:42:42 AM 40.9956 -76.7122 277° West 409 471 38,000  Level New York Center
Sat 08:43:40 AM 41.0083 -76.8700 276° West 425 489 38,000 256 Level New York Center
Sat 08:44:39 AM 41.0208 -77.0308 276° West 438 504 38,500 694 Climbing New York Center
Sat 08:45:41 AM 41.0333 -77.1858 276° West 438 504 39,400 689 Climbing New York Center
Sat 08:46:41 AM 41.0447 -77.3247 276° West 433 498 39,900 600 Climbing New York Center
Sat 08:47:41 AM 41.0569 -77.4744 276° West 423 487 40,600 636 Climbing New York Center
Sat 08:49:12 AM 41.0747 -77.7069 276° West 417 480 41,500 549 Climbing Cleveland Center
Sat 08:50:14 AM 41.0853 -77.8553 275° West 410 472 42,000 537 Climbing Cleveland Center
Sat 08:51:15 AM 41.0981 -78.0314 276° West 407 468 42,600 488 Climbing Cleveland Center
Sat 08:52:17 AM 41.1089 -78.1764 276° West 401 461 43,000 195 Climbing Cleveland Center
Sat 08:53:18 AM 41.1175 -78.3069 275° West 400 460 43,000  Level Cleveland Center
Sat 08:54:20 AM 41.1261 -78.4558 274° West 402 463 43,000  Level Cleveland Center
Sat 08:55:21 AM 41.1411 -78.6372 276° West 409 471 43,000  Level Cleveland Center
Sat 08:56:23 AM 41.1514 -78.7894 275° West 413 475 43,000  Level Cleveland Center
Sat 08:57:25 AM 41.1600 -78.9394 274° West 413 475 43,000  Level Cleveland Center
Sat 08:58:26 AM 41.1697 -79.0917 275° West 412 474 43,000  Level Cleveland Center
Sat 08:59:28 AM 41.1800 -79.2461 275° West 421 484 43,000  Level Cleveland Center
Sat 09:00:29 AM 41.1894 -79.4069 275° West 433 498 43,000  Level Cleveland Center
Sat 09:01:31 AM 41.1983 -79.5622 274° West 432 497 43,000  Level Cleveland Center
Sat 09:02:33 AM 41.2089 -79.7478 274° West 427 491 43,000  Level Cleveland Center
Sat 09:03:34 AM 41.2186 -79.9056 275° West 428 493 43,000  Level Cleveland Center
Sat 09:04:36 AM 41.2278 -80.0653 274° West 430 495 43,000  Level Cleveland Center
Sat 09:05:38 AM 41.2361 -80.2233 274° West 431 496 43,000  Level Cleveland Center
Sat 09:06:39 AM 41.2436 -80.3850 274° West 430 495 43,000  Level Cleveland Center
Sat 09:07:41 AM 41.2522 -80.5447 274° West 430 495 43,000  Level Cleveland Center
Sat 09:08:43 AM 41.2600 -80.7067 274° West 433 498 43,000  Level Cleveland Center
Sat 09:09:44 AM 41.2678 -80.8689 274° West 434 499 43,000  Level Cleveland Center
Sat 09:10:46 AM 41.2764 -81.0572 274° West 435 501 43,000  Level Cleveland Center
Sat 09:11:48 AM 41.2839 -81.2197 274° West 435 501 43,000  Level Cleveland Center
Sat 09:12:49 AM 41.2914 -81.3831 274° West 436 502 43,000  Level Cleveland Center
Sat 09:13:51 AM 41.2975 -81.5314 273° West 440 506 43,000  Level Cleveland Center
Sat 09:14:53 AM 41.3044 -81.6906 273° West 438 504 43,000  Level Cleveland Center
Sat 09:15:54 AM 41.3117 -81.8839 273° West 438 504 43,000  Level Cleveland Center
Sat 09:16:56 AM 41.3181 -82.0442 273° West 438 504 43,000  Level Cleveland Center
Sat 09:17:57 AM 41.3239 -82.2097 273° West 438 504 43,000  Level Cleveland Center
Sat 09:18:59 AM 41.3300 -82.3739 273° West 438 504 43,000  Level Cleveland Center
Sat 09:20:01 AM 41.3353 -82.5369 273° West 438 504 43,000  Level Cleveland Center
Sat 09:21:02 AM 41.3403 -82.6992 272° West 438 504 43,000  Level Cleveland Center
Sat 09:22:04 AM 41.3450 -82.8617 272° West 438 504 43,000  Level Cleveland Center
Sat 09:23:05 AM 41.3500 -83.0250 272° West 438 504 43,000  Level Cleveland Center
Sat 09:24:07 AM 41.3544 -83.1856 272° West 438 504 43,000  Level Cleveland Center
Sat 09:25:09 AM 41.3589 -83.3472 272° West 437 503 43,000  Level Cleveland Center
Sat 09:27:12 AM 41.3681 -83.7031 272° West 437 503 43,000  Level Cleveland Center
Sat 09:28:13 AM 41.3711 -83.8644 271° West 437 503 43,000  Level Cleveland Center
Sat 09:29:15 AM 41.3739 -84.0267 271° West 437 503 43,000  Level Cleveland Center
Sat 09:30:24 AM 41.3792 -84.2203 272° West 437 503 43,000  Level Chicago Center
Sat 09:31:26 AM 41.3814 -84.3811 271° West 437 503 43,000  Level Chicago Center
Sat 09:32:27 AM 41.3839 -84.5417 271° West 435 501 43,000  Level Chicago Center
Sat 09:33:29 AM 41.3869 -84.7019 272° West 434 499 43,000  Level Chicago Center
Sat 09:34:31 AM 41.3883 -84.8633 271° West 436 502 43,000  Level Chicago Center
Sat 09:35:33 AM 41.3903 -85.0222 271° West 431 496 43,000  Level Chicago Center
Sat 09:36:35 AM 41.3919 -85.1850 271° West 435 501 43,000  Level Chicago Center
Sat 09:37:37 AM 41.3939 -85.3794 271° West 434 499 43,000  Level Chicago Center
Sat 09:38:38 AM 41.3953 -85.5417 271° West 433 498 43,000  Level Chicago Center
Sat 09:39:40 AM 41.3956 -85.7036 270° West 432 497 43,000  Level Chicago Center
Sat 09:40:42 AM 41.3964 -85.8658 270° West 435 501 43,000  Level Chicago Center
Sat 09:41:44 AM 41.3964 -86.0286 270° West 439 505 43,000  Level Chicago Center
Sat 09:42:45 AM 41.3978 -86.1906 271° West 437 503 43,000  Level Chicago Center
Sat 09:43:47 AM 41.3969 -86.3525 270° West 437 503 43,000  Level Chicago Center
Sat 09:44:49 AM 41.3975 -86.5164 270° West 441 507 43,000  Level Chicago Center
Sat 09:45:50 AM 41.3961 -86.6806 269° West 442 509 43,000  Level Chicago Center
Sat 09:46:52 AM 41.3958 -86.8661 270° West 444 511 43,000  Level Chicago Center
Sat 09:47:54 AM 41.3956 -87.0308 270° West 446 513 43,000  Level Chicago Center
Sat 09:48:55 AM 41.3944 -87.1944 270° West 446 513 43,000  Level Chicago Center
Sat 09:49:57 AM 41.3928 -87.3603 269° West 447 514 43,000  Level Chicago Center
Sat 09:50:59 AM 41.3908 -87.5597 269° West 450 518 43,000  Level Chicago Center
Sat 09:52:00 AM 41.3894 -87.7258 269° West 449 517 43,000  Level Chicago Center
Sat 09:53:02 AM 41.3875 -87.8922 269° West 449 517 43,000  Level Chicago Center
Sat 09:54:04 AM 41.3847 -88.0489 269° West 452 520 43,000  Level Chicago Center
Sat 09:55:05 AM 41.3822 -88.2383 269° West 450 518 43,000  Level Chicago Center
Sat 09:56:07 AM 41.3792 -88.4033 269° West 446 513 43,000  Level Chicago Center
Sat 09:57:09 AM 41.3764 -88.5694 269° West 448 516 43,000  Level Chicago Center
Sat 09:58:10 AM 41.3728 -88.7339 268° West 446 513 43,000  Level Chicago Center
Sat 09:59:12 AM 41.3694 -88.8997 269° West 447 514 43,000  Level Chicago Center
Sat 10:00:14 AM 41.3656 -89.0650 268° West 448 516 43,000  Level Chicago Center
Sat 10:01:15 AM 41.3611 -89.2408 268° West 453 521 43,000  Level Chicago Center
Sat 10:02:17 AM 41.3572 -89.4047 268° West 444 511 43,000  Level Chicago Center
Sat 10:03:19 AM 41.3517 -89.6039 268° West 449 517 43,000  Level Chicago Center
Sat 10:04:21 AM 41.3467 -89.7694 268° West 449 517 43,000  Level Chicago Center
Sat 10:05:22 AM 41.3422 -89.9353 268° West 450 518 43,000  Level Chicago Center
Sat 10:06:24 AM 41.3375 -90.1003 268° West 449 517 43,000  Level Chicago Center
Sat 10:07:26 AM 41.3325 -90.2658 268° West 450 518 43,000  Level Chicago Center
Sat 10:08:27 AM 41.3278 -90.4311 268° West 450 518 43,000  Level Chicago Center
Sat 10:09:29 AM 41.3217 -90.5969 267° West 450 518 43,000  Level Chicago Center
Sat 10:10:31 AM 41.3117 -90.8008 266° West 456 525 43,000  Level Chicago Center
Sat 10:11:32 AM 41.3044 -90.9669 267° West 451 519 43,000  Level Chicago Center
Sat 10:12:34 AM 41.2975 -91.1331 267° West 453 521 43,000  Level Chicago Center
Sat 10:13:36 AM 41.2919 -91.2978 267° West 447 514 43,000  Level Chicago Center
Sat 10:14:38 AM 41.2844 -91.4658 267° West 449 517 43,000  Level Chicago Center
Sat 10:15:40 AM 41.2772 -91.6303 267° West 448 516 43,000  Level Chicago Center
Sat 10:16:41 AM 41.2692 -91.7956 266° West 450 518 43,000  Level Chicago Center
Sat 10:17:43 AM 41.2597 -91.9961 266° West 453 521 43,000  Level Chicago Center
Sat 10:18:45 AM 41.2508 -92.1603 266° West 452 520 43,000  Level Chicago Center
Sat 10:19:47 AM 41.2419 -92.3236 266° West 449 517 43,000  Level Chicago Center
Sat 10:20:49 AM 41.2336 -92.4864 266° West 452 520 43,000  Level Chicago Center
Sat 10:21:50 AM 41.2244 -92.6486 266° West 449 517 43,000  Level Chicago Center
Sat 10:22:52 AM 41.2136 -92.8483 266° West 454 522 43,000  Level Chicago Center
Sat 10:23:54 AM 41.2047 -93.0125 266° West 452 520 43,000  Level Chicago Center
Sat 10:24:56 AM 41.1944 -93.1761 265° West 450 518 43,000  Level Chicago Center
Sat 10:25:57 AM 41.1850 -93.3392 266° West 449 517 43,000  Level Chicago Center
Sat 10:26:59 AM 41.1742 -93.5028 265° West 450 518 43,000  Level Chicago Center
Sat 10:28:01 AM 41.1622 -93.6997 265° West 450 518 43,000  Level Chicago Center
Sat 10:29:03 AM 41.1511 -93.8639 265° West 452 520 43,000  Level Chicago Center
Sat 10:30:05 AM 41.1414 -94.0292 266° West 453 521 43,000  Level Chicago Center
Sat 10:31:07 AM 41.1292 -94.1936 264° West 452 520 43,000  Level Chicago Center
Sat 10:32:08 AM 41.1181 -94.3578 265° West 451 519 43,000  Level Chicago Center
Sat 10:33:10 AM 41.1053 -94.5225 264° West 452 520 43,000  Level Chicago Center
Sat 10:34:31 AM 41.0897 -94.7492 265° West 452 520 43,000  Level Minneapolis Center
Sat 10:35:33 AM 41.0775 -94.9158 264° West 452 520 43,000  Level Minneapolis Center
Sat 10:36:34 AM 41.0628 -95.1144 264° West 452 520 43,000  Level Minneapolis Center
Sat 10:37:36 AM 41.0500 -95.2800 264° West 452 520 43,000  Level Minneapolis Center
Sat 10:38:37 AM 41.0350 -95.4450 263° West 452 520 43,000  Level Minneapolis Center
Sat 10:39:39 AM 41.0219 -95.6108 264° West 452 520 43,000  Level Minneapolis Center
Sat 10:40:41 AM 41.0086 -95.7769 264° West 451 519 43,000  Level Minneapolis Center
Sat 10:41:42 AM 40.9931 -95.9439 263° West 451 519 43,000  Level Minneapolis Center
Sat 10:42:44 AM 40.9797 -96.1100 264° West 451 519 43,000  Level Minneapolis Center
Sat 10:43:46 AM 40.9647 -96.2772 263° West 451 519 43,000  Level Minneapolis Center
Sat 10:45:49 AM 40.9344 -96.6094 263° West 451 519 43,000  Level Minneapolis Center
Sat 10:46:51 AM 40.9164 -96.8083 263° West 452 520 43,000  Level Minneapolis Center
Sat 10:47:52 AM 40.9000 -96.9744 263° West 452 520 43,000  Level Minneapolis Center
Sat 10:48:54 AM 40.8847 -97.1406 263° West 453 521 43,000  Level Minneapolis Center
Sat 10:49:56 AM 40.8678 -97.3075 262° West 454 522 43,000  Level Minneapolis Center
Sat 10:50:57 AM 40.8511 -97.4647 262° West 455 524 43,000  Level Minneapolis Center
Sat 10:51:59 AM 40.8367 -97.6325 264° West 456 525 43,000  Level Minneapolis Center
Sat 10:53:01 AM 40.8153 -97.8328 262° West 456 525 43,000  Level Minneapolis Center
Sat 10:54:03 AM 40.7972 -98.0011 262° West 458 527 43,000  Level Minneapolis Center
Sat 10:55:04 AM 40.7792 -98.1697 262° West 459 528 43,000  Level Minneapolis Center
Sat 10:56:06 AM 40.7622 -98.3406 263° West 463 533 43,000  Level Minneapolis Center
Sat 10:57:08 AM 40.7439 -98.5106 262° West 463 533 43,000  Level Minneapolis Center
Sat 10:58:09 AM 40.7242 -98.6819 261° West 464 534 43,000  Level Minneapolis Center
Sat 10:59:11 AM 40.7050 -98.8533 262° West 464 534 43,000  Level Minneapolis Center
Sat 11:00:13 AM 40.6858 -99.0256 262° West 466 536 43,000  Level Minneapolis Center
Sat 11:00:50 AM 40.6739 -99.1283 261° West 467 537 43,000  Level Denver Center
Sat 11:01:53 AM 40.6539 -99.2986 261° West 467 537 43,000  Level Denver Center
Sat 11:02:53 AM 40.6333 -99.4708 261° West 470 541 43,000  Level Denver Center
Sat 11:03:57 AM 40.6100 -99.6772 262° West 472 543 43,000  Level Denver Center
Sat 11:04:56 AM 40.5886 -99.8500 261° West 474 545 43,000  Level Denver Center
Sat 11:06:01 AM 40.5706 -100.0067 261° West 475 547 43,000  Level Denver Center
Sat 11:07:01 AM 40.5467 -100.1983 261° West 475 547 43,000  Level Denver Center
Sat 11:08:05 AM 40.5253 -100.3619 260° West 475 547 43,000  Level Denver Center
Sat 11:09:05 AM 40.5014 -100.5536 261° West 474 545 43,000  Level Denver Center
Sat 11:10:08 AM 40.4803 -100.7189 261° West 474 545 43,000  Level Denver Center
Sat 11:11:10 AM 40.4553 -100.9111 260° West 474 545 43,000  Level Denver Center
Sat 11:12:13 AM 40.4350 -101.0772 261° West 475 547 43,000  Level Denver Center
Sat 11:13:14 AM 40.4153 -101.2417 261° West 475 547 43,000  Level Denver Center
Sat 11:14:17 AM 40.3911 -101.4317 261° West 474 545 43,000  Level Denver Center
Sat 11:15:18 AM 40.3689 -101.5939 260° West 473 544 43,000  Level Denver Center
Sat 11:16:21 AM 40.3447 -101.7842 261° West 473 544 43,000  Level Denver Center
Sat 11:17:23 AM 40.3236 -101.9464 260° West 473 544 43,000  Level Denver Center
Sat 11:18:23 AM 40.2989 -102.1339 260° West 471 542 43,000  Level Denver Center
Sat 11:19:26 AM 40.2769 -102.2950 260° West 470 541 43,000  Level Denver Center
Sat 11:20:27 AM 40.2531 -102.4819 261° West 469 540 43,000  Level Denver Center
Sat 11:21:32 AM 40.2303 -102.6414 259° West 469 540 43,000  Level Denver Center
Sat 11:22:32 AM 40.2067 -102.8092 260° West 468 539 43,000  Level Denver Center
Sat 11:23:36 AM 40.1833 -102.9750 260° West 468 539 43,000  Level Denver Center
Sat 11:24:37 AM 40.1550 -103.1742 260° West 468 539 43,000 -194 Level Denver Center
Sat 11:25:40 AM 40.1422 -103.3400 264° West 462 532 42,600 -878 Descending Denver Center
Sat 11:26:40 AM 40.1311 -103.5092 265° West 464 534 41,200 -1,355 Descending Denver Center
Sat 11:27:44 AM 40.1197 -103.6764 265° West 466 536 39,800 -1,248 Descending Denver Center
Sat 11:28:45 AM 40.1072 -103.8419 264° West 461 531 38,600 -878 Descending Denver Center
Sat 11:29:47 AM 40.0939 -104.0106 264° West 467 537 38,000 -1,073 Descending Denver Center
Sat 11:30:48 AM 40.0797 -104.2117 265° West 467 537 36,400 -1,488 Descending Denver Center
Sat 11:31:52 AM 40.0653 -104.3861 264° West 482 555 34,900 -1,440 Descending Denver Center
Sat 11:32:53 AM 40.0519 -104.5592 264° West 486 559 33,400 -1,475 Descending Denver Center
Sat 11:33:54 AM 40.0397 -104.7197 264° West 458 527 31,900 -1,584 Descending Denver Center
Sat 11:34:58 AM 40.0336 -104.9089 268° West 444 511 30,100 -1,440 Descending Denver Center
Sat 11:35:59 AM 40.0306 -105.0722 269° West 452 520 28,900 -912 Descending Denver Center
Sat 11:37:03 AM 40.0286 -105.2364 269° West 454 522 28,200 -585 Descending Denver Center
Sat 11:38:02 AM 40.0256 -105.3914 269° West 437 503 27,700 -484 Descending Denver Center
Sat 11:39:07 AM 40.0225 -105.5447 269° West 430 495 27,200 -1,381 Descending Denver Center
Sat 11:40:08 AM 40.0189 -105.7247 269° West 419 482 24,800 -2,371 Descending Denver Center
Sat 11:41:11 AM 40.0161 -105.8706 269° West 405 466 22,300 -2,419 Descending Denver Center
Sat 11:42:12 AM 40.0125 -106.0067 268° West 382 440 19,800 -2,419 Descending Denver Center
Sat 11:43:15 AM 40.0092 -106.1375 268° West 368 423 17,300 -2,256 Descending Denver Center
Sat 11:44:17 AM 40.0072 -106.2742 269° West 357 411 15,100 -1,574 Descending Denver Center
Sat 11:45:17 AM 40.0042 -106.3878 268° West 339 390 14,100 -576 Descending Denver Center
Sat 11:46:22 AM 39.9600 -106.4603 232° Southwest 310 357 13,900 -144 Descending Denver Center
Sat 11:47:22 AM 39.8850 -106.4914 198° South 293 337 13,800 -49 Descending Denver Center
Sat 11:48:24 AM 39.8192 -106.5189 198° South 269 310 13,800 -195 Level Denver Center
Sat 11:49:25 AM 39.7628 -106.5439 199° South 226 260 13,400 -480 Descending Denver Center
Sat 11:50:29 AM 39.7003 -106.5747 201° Southwest 214 246 12,800 -714 Descending Denver Center
Sat 11:51:31 AM 39.6831 -106.6314 248° West 175 201 11,900 -1,008 Descending Denver Center
Sat 11:52:34 AM 39.6758 -106.6953 262° West 174 200 10,700 -1,210 Descending Denver Center
Sat 11:53:35 AM 39.6656 -106.7642 259° West 187 215 9,400 -1,296 Descending Denver Center
Sat 11:54:39 AM 39.6531 -106.8331 257° West 174 200 8,000 -1,152 Descending Denver Center
Sat 11:55:40 AM 39.6456 -106.8833 259° West 154 177 7,000 -984 Descending Denver Center

Login

Don't have an account? Register now (free) for customized features, flight alerts, and more!